sensor_id;sensor_type;location;lat;lon;timestamp;P1;durP1;ratioP1;P2;durP2;ratioP2
33357;SDS011;19717;42.614;23.418;2023-05-01T00:00:04;1.30;;;1.30;;
33357;SDS011;19717;42.614;23.418;2023-05-01T00:02:31;1.45;;;1.35;;
33357;SDS011;19717;42.614;23.418;2023-05-01T00:04:58;1.38;;;1.27;;
33357;SDS011;19717;42.614;23.418;2023-05-01T00:07:24;1.38;;;1.33;;
33357;SDS011;19717;42.614;23.418;2023-05-01T00:09:53;1.20;;;1.20;;
33357;SDS011;19717;42.614;23.418;2023-05-01T00:12:19;1.40;;;1.25;;
33357;SDS011;19717;42.614;23.418;2023-05-01T00:14:48;1.20;;;1.20;;
33357;SDS011;19717;42.614;23.418;2023-05-01T00:17:14;1.30;;;1.30;;
33357;SDS011;19717;42.614;23.418;2023-05-01T00:19:40;1.10;;;1.10;;
33357;SDS011;19717;42.614;23.418;2023-05-01T00:22:06;1.50;;;1.15;;
33357;SDS011;19717;42.614;23.418;2023-05-01T00:24:33;1.30;;;1.30;;
33357;SDS011;19717;42.614;23.418;2023-05-01T00:26:59;1.30;;;1.30;;
33357;SDS011;19717;42.614;23.418;2023-05-01T00:29:25;1.30;;;1.30;;
33357;SDS011;19717;42.614;23.418;2023-05-01T00:31:52;1.55;;;1.45;;
33357;SDS011;19717;42.614;23.418;2023-05-01T00:34:18;1.55;;;1.45;;
33357;SDS011;19717;42.614;23.418;2023-05-01T00:36:44;1.40;;;1.40;;
33357;SDS011;19717;42.614;23.418;2023-05-01T00:39:10;1.48;;;1.42;;
33357;SDS011;19717;42.614;23.418;2023-05-01T00:41:36;1.70;;;1.60;;
33357;SDS011;19717;42.614;23.418;2023-05-01T00:44:02;1.30;;;1.30;;
33357;SDS011;19717;42.614;23.418;2023-05-01T00:46:29;1.40;;;1.40;;
33357;SDS011;19717;42.614;23.418;2023-05-01T00:48:58;1.30;;;1.30;;
33357;SDS011;19717;42.614;23.418;2023-05-01T00:51:24;1.33;;;1.33;;
33357;SDS011;19717;42.614;23.418;2023-05-01T00:53:52;1.60;;;1.50;;
33357;SDS011;19717;42.614;23.418;2023-05-01T00:56:18;1.50;;;1.40;;
33357;SDS011;19717;42.614;23.418;2023-05-01T00:58:45;1.63;;;1.52;;
33357;SDS011;19717;42.614;23.418;2023-05-01T01:01:15;1.58;;;1.48;;
33357;SDS011;19717;42.614;23.418;2023-05-01T01:03:41;1.40;;;1.40;;
33357;SDS011;19717;42.614;23.418;2023-05-01T01:08:59;1.30;;;1.30;;
33357;SDS011;19717;42.614;23.418;2023-05-01T01:16:33;1.92;;;1.83;;
33357;SDS011;19717;42.614;23.418;2023-05-01T01:21:49;1.60;;;1.50;;
33357;SDS011;19717;42.614;23.418;2023-05-01T01:29:43;2.22;;;1.70;;
33357;SDS011;19717;42.614;23.418;2023-05-01T01:35:18;1.73;;;1.63;;
33357;SDS011;19717;42.614;23.418;2023-05-01T01:40:21;1.85;;;1.75;;
33357;SDS011;19717;42.614;23.418;2023-05-01T01:42:50;2.28;;;1.80;;
33357;SDS011;19717;42.614;23.418;2023-05-01T01:45:18;1.92;;;1.83;;
33357;SDS011;19717;42.614;23.418;2023-05-01T01:47:47;1.77;;;1.67;;
33357;SDS011;19717;42.614;23.418;2023-05-01T01:50:14;1.90;;;1.80;;
33357;SDS011;19717;42.614;23.418;2023-05-01T01:52:41;2.10;;;1.83;;
33357;SDS011;19717;42.614;23.418;2023-05-01T01:55:10;1.63;;;1.52;;
33357;SDS011;19717;42.614;23.418;2023-05-01T01:57:37;2.05;;;1.77;;
33357;SDS011;19717;42.614;23.418;2023-05-01T02:00:05;1.65;;;1.55;;
33357;SDS011;19717;42.614;23.418;2023-05-01T02:02:33;2.00;;;1.90;;
33357;SDS011;19717;42.614;23.418;2023-05-01T02:05:01;1.63;;;1.52;;
33357;SDS011;19717;42.614;23.418;2023-05-01T02:07:28;1.65;;;1.55;;
33357;SDS011;19717;42.614;23.418;2023-05-01T02:09:55;1.33;;;1.33;;
33357;SDS011;19717;42.614;23.418;2023-05-01T02:12:22;1.50;;;1.40;;
33357;SDS011;19717;42.614;23.418;2023-05-01T02:14:50;1.40;;;1.40;;
33357;SDS011;19717;42.614;23.418;2023-05-01T02:17:18;2.03;;;1.92;;
33357;SDS011;19717;42.614;23.418;2023-05-01T02:19:45;2.05;;;1.92;;
33357;SDS011;19717;42.614;23.418;2023-05-01T02:22:11;1.83;;;1.73;;
33357;SDS011;19717;42.614;23.418;2023-05-01T02:24:38;2.10;;;2.00;;
33357;SDS011;19717;42.614;23.418;2023-05-01T02:27:15;2.08;;;1.85;;
33357;SDS011;19717;42.614;23.418;2023-05-01T02:29:42;2.00;;;1.90;;
33357;SDS011;19717;42.614;23.418;2023-05-01T02:32:08;2.10;;;2.00;;
33357;SDS011;19717;42.614;23.418;2023-05-01T02:34:34;2.20;;;2.10;;
33357;SDS011;19717;42.614;23.418;2023-05-01T02:37:01;2.40;;;2.20;;
33357;SDS011;19717;42.614;23.418;2023-05-01T02:39:27;1.60;;;1.50;;
33357;SDS011;19717;42.614;23.418;2023-05-01T02:41:53;1.85;;;1.75;;
33357;SDS011;19717;42.614;23.418;2023-05-01T02:44:20;2.13;;;1.42;;
33357;SDS011;19717;42.614;23.418;2023-05-01T02:46:47;1.48;;;1.38;;
33357;SDS011;19717;42.614;23.418;2023-05-01T02:49:14;1.50;;;1.40;;
33357;SDS011;19717;42.614;23.418;2023-05-01T02:51:42;1.73;;;1.63;;
33357;SDS011;19717;42.614;23.418;2023-05-01T02:54:09;1.60;;;1.50;;
33357;SDS011;19717;42.614;23.418;2023-05-01T02:56:35;1.50;;;1.50;;
33357;SDS011;19717;42.614;23.418;2023-05-01T02:59:02;1.77;;;1.67;;
33357;SDS011;19717;42.614;23.418;2023-05-01T03:01:28;2.10;;;1.50;;
33357;SDS011;19717;42.614;23.418;2023-05-01T03:03:54;1.60;;;1.50;;
33357;SDS011;19717;42.614;23.418;2023-05-01T03:06:20;1.80;;;1.70;;
33357;SDS011;19717;42.614;23.418;2023-05-01T03:08:46;1.75;;;1.65;;
33357;SDS011;19717;42.614;23.418;2023-05-01T03:11:12;1.80;;;1.70;;
33357;SDS011;19717;42.614;23.418;2023-05-01T03:13:39;1.75;;;1.65;;
33357;SDS011;19717;42.614;23.418;2023-05-01T03:16:05;1.75;;;1.65;;
33357;SDS011;19717;42.614;23.418;2023-05-01T03:18:31;2.20;;;2.10;;
33357;SDS011;19717;42.614;23.418;2023-05-01T03:20:57;2.20;;;2.08;;
33357;SDS011;19717;42.614;23.418;2023-05-01T03:23:24;2.15;;;2.00;;
33357;SDS011;19717;42.614;23.418;2023-05-01T03:25:53;1.98;;;1.88;;
33357;SDS011;19717;42.614;23.418;2023-05-01T03:28:19;1.88;;;1.77;;
33357;SDS011;19717;42.614;23.418;2023-05-01T03:30:48;2.53;;;2.20;;
33357;SDS011;19717;42.614;23.418;2023-05-01T03:33:15;2.20;;;2.10;;
33357;SDS011;19717;42.614;23.418;2023-05-01T03:35:41;2.45;;;2.25;;
33357;SDS011;19717;42.614;23.418;2023-05-01T03:38:07;2.75;;;2.10;;
33357;SDS011;19717;42.614;23.418;2023-05-01T03:40:33;2.28;;;2.08;;
33357;SDS011;19717;42.614;23.418;2023-05-01T03:42:59;2.15;;;2.03;;
33357;SDS011;19717;42.614;23.418;2023-05-01T03:45:25;2.53;;;2.33;;
33357;SDS011;19717;42.614;23.418;2023-05-01T03:47:54;2.08;;;1.98;;
33357;SDS011;19717;42.614;23.418;2023-05-01T03:50:21;2.20;;;2.10;;
33357;SDS011;19717;42.614;23.418;2023-05-01T03:52:49;1.95;;;1.85;;
33357;SDS011;19717;42.614;23.418;2023-05-01T03:55:15;1.98;;;1.73;;
33357;SDS011;19717;42.614;23.418;2023-05-01T03:57:41;1.77;;;1.67;;
33357;SDS011;19717;42.614;23.418;2023-05-01T04:00:07;1.45;;;1.35;;
33357;SDS011;19717;42.614;23.418;2023-05-01T04:02:35;1.77;;;1.67;;
33357;SDS011;19717;42.614;23.418;2023-05-01T04:05:01;1.70;;;1.60;;
33357;SDS011;19717;42.614;23.418;2023-05-01T04:07:27;2.28;;;1.77;;
33357;SDS011;19717;42.614;23.418;2023-05-01T04:09:53;2.00;;;1.90;;
33357;SDS011;19717;42.614;23.418;2023-05-01T04:12:19;1.92;;;1.83;;
33357;SDS011;19717;42.614;23.418;2023-05-01T04:14:45;2.70;;;1.83;;
33357;SDS011;19717;42.614;23.418;2023-05-01T04:17:12;2.15;;;1.98;;
33357;SDS011;19717;42.614;23.418;2023-05-01T04:19:38;2.08;;;1.98;;
33357;SDS011;19717;42.614;23.418;2023-05-01T04:22:05;2.17;;;1.98;;
33357;SDS011;19717;42.614;23.418;2023-05-01T04:24:31;1.92;;;1.83;;
33357;SDS011;19717;42.614;23.418;2023-05-01T04:26:57;2.13;;;2.03;;
33357;SDS011;19717;42.614;23.418;2023-05-01T04:29:23;2.45;;;2.00;;
33357;SDS011;19717;42.614;23.418;2023-05-01T04:31:49;1.88;;;1.77;;
33357;SDS011;19717;42.614;23.418;2023-05-01T04:34:15;2.15;;;2.05;;
33357;SDS011;19717;42.614;23.418;2023-05-01T04:36:41;2.30;;;2.20;;
33357;SDS011;19717;42.614;23.418;2023-05-01T04:39:07;2.13;;;2.03;;
33357;SDS011;19717;42.614;23.418;2023-05-01T04:41:34;2.10;;;2.00;;
33357;SDS011;19717;42.614;23.418;2023-05-01T04:44:00;2.30;;;2.10;;
33357;SDS011;19717;42.614;23.418;2023-05-01T04:46:27;2.80;;;2.50;;
33357;SDS011;19717;42.614;23.418;2023-05-01T04:48:53;2.45;;;2.28;;
33357;SDS011;19717;42.614;23.418;2023-05-01T04:51:19;2.83;;;2.63;;
33357;SDS011;19717;42.614;23.418;2023-05-01T04:53:45;2.45;;;2.25;;
33357;SDS011;19717;42.614;23.418;2023-05-01T04:56:11;2.30;;;2.10;;
33357;SDS011;19717;42.614;23.418;2023-05-01T04:58:37;2.30;;;2.20;;
33357;SDS011;19717;42.614;23.418;2023-05-01T05:01:03;2.30;;;2.10;;
33357;SDS011;19717;42.614;23.418;2023-05-01T05:03:30;2.40;;;2.20;;
33357;SDS011;19717;42.614;23.418;2023-05-01T05:05:56;2.22;;;2.05;;
33357;SDS011;19717;42.614;23.418;2023-05-01T05:08:22;2.58;;;2.38;;
33357;SDS011;19717;42.614;23.418;2023-05-01T05:10:48;2.42;;;1.85;;
33357;SDS011;19717;42.614;23.418;2023-05-01T05:13:14;1.90;;;1.80;;
33357;SDS011;19717;42.614;23.418;2023-05-01T05:15:40;1.92;;;1.83;;
33357;SDS011;19717;42.614;23.418;2023-05-01T05:18:06;2.00;;;1.70;;
33357;SDS011;19717;42.614;23.418;2023-05-01T05:20:32;1.73;;;1.63;;
33357;SDS011;19717;42.614;23.418;2023-05-01T05:23:02;1.77;;;1.67;;
33357;SDS011;19717;42.614;23.418;2023-05-01T05:25:28;1.90;;;1.80;;
33357;SDS011;19717;42.614;23.418;2023-05-01T05:27:54;1.70;;;1.60;;
33357;SDS011;19717;42.614;23.418;2023-05-01T05:30:20;2.00;;;1.90;;
33357;SDS011;19717;42.614;23.418;2023-05-01T05:32:47;1.85;;;1.70;;
33357;SDS011;19717;42.614;23.418;2023-05-01T05:35:13;1.70;;;1.60;;
33357;SDS011;19717;42.614;23.418;2023-05-01T05:37:40;1.63;;;1.52;;
33357;SDS011;19717;42.614;23.418;2023-05-01T05:40:06;1.75;;;1.65;;
33357;SDS011;19717;42.614;23.418;2023-05-01T05:42:33;3.22;;;1.85;;
33357;SDS011;19717;42.614;23.418;2023-05-01T05:44:59;1.70;;;1.60;;
33357;SDS011;19717;42.614;23.418;2023-05-01T05:47:25;2.38;;;1.80;;
33357;SDS011;19717;42.614;23.418;2023-05-01T05:49:51;1.88;;;1.77;;
33357;SDS011;19717;42.614;23.418;2023-05-01T05:52:19;1.50;;;1.42;;
33357;SDS011;19717;42.614;23.418;2023-05-01T05:54:45;1.77;;;1.67;;
33357;SDS011;19717;42.614;23.418;2023-05-01T05:57:11;2.05;;;1.85;;
33357;SDS011;19717;42.614;23.418;2023-05-01T05:59:37;1.70;;;1.60;;
33357;SDS011;19717;42.614;23.418;2023-05-01T06:02:03;1.88;;;1.77;;
33357;SDS011;19717;42.614;23.418;2023-05-01T06:04:29;2.55;;;1.58;;
33357;SDS011;19717;42.614;23.418;2023-05-01T06:06:56;1.50;;;1.40;;
33357;SDS011;19717;42.614;23.418;2023-05-01T06:09:22;1.73;;;1.63;;
33357;SDS011;19717;42.614;23.418;2023-05-01T06:11:52;1.70;;;1.60;;
33357;SDS011;19717;42.614;23.418;2023-05-01T06:14:18;1.92;;;1.75;;
33357;SDS011;19717;42.614;23.418;2023-05-01T06:16:44;1.60;;;1.50;;
33357;SDS011;19717;42.614;23.418;2023-05-01T06:19:10;1.70;;;1.60;;
33357;SDS011;19717;42.614;23.418;2023-05-01T06:21:36;1.80;;;1.70;;
33357;SDS011;19717;42.614;23.418;2023-05-01T06:24:02;1.65;;;1.55;;
33357;SDS011;19717;42.614;23.418;2023-05-01T06:26:28;1.75;;;1.65;;
33357;SDS011;19717;42.614;23.418;2023-05-01T06:28:55;1.63;;;1.52;;
33357;SDS011;19717;42.614;23.418;2023-05-01T06:31:21;1.63;;;1.52;;
33357;SDS011;19717;42.614;23.418;2023-05-01T06:33:47;2.35;;;1.73;;
33357;SDS011;19717;42.614;23.418;2023-05-01T06:36:13;1.80;;;1.70;;
33357;SDS011;19717;42.614;23.418;2023-05-01T06:38:39;1.92;;;1.75;;
33357;SDS011;19717;42.614;23.418;2023-05-01T06:41:08;1.70;;;1.60;;
33357;SDS011;19717;42.614;23.418;2023-05-01T06:43:34;1.85;;;1.65;;
33357;SDS011;19717;42.614;23.418;2023-05-01T06:46:00;1.70;;;1.60;;
33357;SDS011;19717;42.614;23.418;2023-05-01T06:48:27;1.80;;;1.70;;
33357;SDS011;19717;42.614;23.418;2023-05-01T06:50:54;1.70;;;1.60;;
33357;SDS011;19717;42.614;23.418;2023-05-01T06:53:20;2.88;;;1.70;;
33357;SDS011;19717;42.614;23.418;2023-05-01T06:55:46;1.65;;;1.55;;
33357;SDS011;19717;42.614;23.418;2023-05-01T06:58:12;2.97;;;1.90;;
33357;SDS011;19717;42.614;23.418;2023-05-01T07:00:38;1.73;;;1.63;;
33357;SDS011;19717;42.614;23.418;2023-05-01T07:03:04;2.08;;;1.95;;
33357;SDS011;19717;42.614;23.418;2023-05-01T07:05:30;1.63;;;1.52;;
33357;SDS011;19717;42.614;23.418;2023-05-01T07:07:56;1.70;;;1.60;;
33357;SDS011;19717;42.614;23.418;2023-05-01T07:10:22;1.70;;;1.60;;
33357;SDS011;19717;42.614;23.418;2023-05-01T07:12:48;1.70;;;1.60;;
33357;SDS011;19717;42.614;23.418;2023-05-01T07:15:14;1.70;;;1.60;;
33357;SDS011;19717;42.614;23.418;2023-05-01T07:17:41;1.52;;;1.40;;
33357;SDS011;19717;42.614;23.418;2023-05-01T07:20:07;1.70;;;1.60;;
33357;SDS011;19717;42.614;23.418;2023-05-01T07:22:34;1.83;;;1.63;;
33357;SDS011;19717;42.614;23.418;2023-05-01T07:25:00;2.00;;;1.63;;
33357;SDS011;19717;42.614;23.418;2023-05-01T07:27:27;1.52;;;1.40;;
33357;SDS011;19717;42.614;23.418;2023-05-01T07:29:55;1.63;;;1.52;;
33357;SDS011;19717;42.614;23.418;2023-05-01T07:32:22;1.80;;;1.70;;
33357;SDS011;19717;42.614;23.418;2023-05-01T07:34:48;2.10;;;2.00;;
33357;SDS011;19717;42.614;23.418;2023-05-01T07:37:14;1.63;;;1.52;;
33357;SDS011;19717;42.614;23.418;2023-05-01T07:39:40;1.70;;;1.60;;
33357;SDS011;19717;42.614;23.418;2023-05-01T07:42:06;1.83;;;1.73;;
33357;SDS011;19717;42.614;23.418;2023-05-01T07:44:32;2.80;;;1.67;;
33357;SDS011;19717;42.614;23.418;2023-05-01T07:47:05;1.50;;;1.40;;
33357;SDS011;19717;42.614;23.418;2023-05-01T07:49:35;1.58;;;1.48;;
33357;SDS011;19717;42.614;23.418;2023-05-01T07:52:04;1.70;;;1.60;;
33357;SDS011;19717;42.614;23.418;2023-05-01T07:54:32;1.83;;;1.70;;
33357;SDS011;19717;42.614;23.418;2023-05-01T07:56:58;1.83;;;1.73;;
33357;SDS011;19717;42.614;23.418;2023-05-01T07:59:26;1.38;;;1.35;;
33357;SDS011;19717;42.614;23.418;2023-05-01T08:01:52;1.40;;;1.30;;
33357;SDS011;19717;42.614;23.418;2023-05-01T08:04:18;1.45;;;1.35;;
33357;SDS011;19717;42.614;23.418;2023-05-01T08:06:46;1.20;;;1.20;;
33357;SDS011;19717;42.614;23.418;2023-05-01T08:09:12;1.30;;;1.30;;
33357;SDS011;19717;42.614;23.418;2023-05-01T08:11:38;1.40;;;1.30;;
33357;SDS011;19717;42.614;23.418;2023-05-01T08:14:04;1.30;;;1.30;;
33357;SDS011;19717;42.614;23.418;2023-05-01T08:16:32;1.17;;;1.10;;
33357;SDS011;19717;42.614;23.418;2023-05-01T08:18:58;1.60;;;1.30;;
33357;SDS011;19717;42.614;23.418;2023-05-01T08:21:24;1.20;;;1.20;;
33357;SDS011;19717;42.614;23.418;2023-05-01T08:23:50;1.23;;;1.23;;
33357;SDS011;19717;42.614;23.418;2023-05-01T08:26:16;1.13;;;1.00;;
33357;SDS011;19717;42.614;23.418;2023-05-01T08:28:42;1.10;;;1.00;;
33357;SDS011;19717;42.614;23.418;2023-05-01T08:31:09;1.13;;;0.85;;
33357;SDS011;19717;42.614;23.418;2023-05-01T08:33:35;0.90;;;0.90;;
33357;SDS011;19717;42.614;23.418;2023-05-01T08:36:01;0.80;;;0.80;;
33357;SDS011;19717;42.614;23.418;2023-05-01T08:38:27;0.77;;;0.77;;
33357;SDS011;19717;42.614;23.418;2023-05-01T08:40:53;0.68;;;0.68;;
33357;SDS011;19717;42.614;23.418;2023-05-01T08:43:21;2.85;;;0.80;;
33357;SDS011;19717;42.614;23.418;2023-05-01T08:45:48;1.00;;;1.00;;
33357;SDS011;19717;42.614;23.418;2023-05-01T08:48:18;0.70;;;0.70;;
33357;SDS011;19717;42.614;23.418;2023-05-01T08:50:45;0.73;;;0.73;;
33357;SDS011;19717;42.614;23.418;2023-05-01T08:53:13;0.80;;;0.80;;
33357;SDS011;19717;42.614;23.418;2023-05-01T08:55:41;0.70;;;0.70;;
33357;SDS011;19717;42.614;23.418;2023-05-01T08:58:09;0.68;;;0.68;;
33357;SDS011;19717;42.614;23.418;2023-05-01T09:00:37;0.65;;;0.60;;
33357;SDS011;19717;42.614;23.418;2023-05-01T09:03:04;0.60;;;0.60;;
33357;SDS011;19717;42.614;23.418;2023-05-01T09:05:31;0.60;;;0.60;;
33357;SDS011;19717;42.614;23.418;2023-05-01T09:07:58;0.70;;;0.70;;
33357;SDS011;19717;42.614;23.418;2023-05-01T09:10:24;0.80;;;0.80;;
33357;SDS011;19717;42.614;23.418;2023-05-01T09:12:55;0.60;;;0.60;;
33357;SDS011;19717;42.614;23.418;2023-05-01T09:15:25;0.60;;;0.60;;
33357;SDS011;19717;42.614;23.418;2023-05-01T09:17:52;0.57;;;0.57;;
33357;SDS011;19717;42.614;23.418;2023-05-01T09:20:18;0.50;;;0.50;;
33357;SDS011;19717;42.614;23.418;2023-05-01T09:22:44;0.75;;;0.60;;
33357;SDS011;19717;42.614;23.418;2023-05-01T09:25:10;0.73;;;0.60;;
33357;SDS011;19717;42.614;23.418;2023-05-01T09:27:36;0.50;;;0.50;;
33357;SDS011;19717;42.614;23.418;2023-05-01T09:30:05;0.82;;;0.57;;
33357;SDS011;19717;42.614;23.418;2023-05-01T09:32:32;0.73;;;0.73;;
33357;SDS011;19717;42.614;23.418;2023-05-01T09:35:09;0.60;;;0.60;;
33357;SDS011;19717;42.614;23.418;2023-05-01T09:37:35;0.52;;;0.52;;
33357;SDS011;19717;42.614;23.418;2023-05-01T09:40:02;0.70;;;0.60;;
33357;SDS011;19717;42.614;23.418;2023-05-01T09:42:29;0.60;;;0.60;;
33357;SDS011;19717;42.614;23.418;2023-05-01T09:44:58;1.98;;;0.55;;
33357;SDS011;19717;42.614;23.418;2023-05-01T09:47:25;0.50;;;0.50;;
33357;SDS011;19717;42.614;23.418;2023-05-01T09:49:54;0.50;;;0.50;;
33357;SDS011;19717;42.614;23.418;2023-05-01T09:52:26;0.47;;;0.47;;
33357;SDS011;19717;42.614;23.418;2023-05-01T09:57:54;0.50;;;0.50;;
33357;SDS011;19717;42.614;23.418;2023-05-01T10:00:22;0.50;;;0.50;;
33357;SDS011;19717;42.614;23.418;2023-05-01T10:02:49;0.93;;;0.50;;
33357;SDS011;19717;42.614;23.418;2023-05-01T10:05:15;0.43;;;0.43;;
33357;SDS011;19717;42.614;23.418;2023-05-01T10:08:03;0.80;;;0.52;;
33357;SDS011;19717;42.614;23.418;2023-05-01T10:13:21;0.50;;;0.50;;
33357;SDS011;19717;42.614;23.418;2023-05-01T10:15:47;0.60;;;0.45;;
33357;SDS011;19717;42.614;23.418;2023-05-01T10:18:14;0.60;;;0.60;;
33357;SDS011;19717;42.614;23.418;2023-05-01T10:20:42;1.35;;;0.70;;
33357;SDS011;19717;42.614;23.418;2023-05-01T10:23:08;0.55;;;0.40;;
33357;SDS011;19717;42.614;23.418;2023-05-01T10:25:35;0.82;;;0.50;;
33357;SDS011;19717;42.614;23.418;2023-05-01T10:28:02;0.40;;;0.40;;
33357;SDS011;19717;42.614;23.418;2023-05-01T10:30:28;0.57;;;0.50;;
33357;SDS011;19717;42.614;23.418;2023-05-01T10:32:55;0.65;;;0.65;;
33357;SDS011;19717;42.614;23.418;2023-05-01T10:35:28;0.40;;;0.40;;
33357;SDS011;19717;42.614;23.418;2023-05-01T10:38:03;0.50;;;0.50;;
33357;SDS011;19717;42.614;23.418;2023-05-01T10:45:45;0.40;;;0.40;;
33357;SDS011;19717;42.614;23.418;2023-05-01T10:48:12;0.50;;;0.50;;
33357;SDS011;19717;42.614;23.418;2023-05-01T10:53:23;0.93;;;0.73;;
33357;SDS011;19717;42.614;23.418;2023-05-01T10:55:49;0.60;;;0.60;;
33357;SDS011;19717;42.614;23.418;2023-05-01T11:03:45;0.50;;;0.50;;
33357;SDS011;19717;42.614;23.418;2023-05-01T11:06:11;5.00;;;2.53;;
33357;SDS011;19717;42.614;23.418;2023-05-01T11:08:37;0.70;;;0.70;;
33357;SDS011;19717;42.614;23.418;2023-05-01T11:21:35;0.88;;;0.77;;
33357;SDS011;19717;42.614;23.418;2023-05-01T11:24:03;4.15;;;0.77;;
33357;SDS011;19717;42.614;23.418;2023-05-01T11:26:29;0.50;;;0.50;;
33357;SDS011;19717;42.614;23.418;2023-05-01T11:28:56;0.40;;;0.40;;
33357;SDS011;19717;42.614;23.418;2023-05-01T11:31:24;1.63;;;0.60;;
33357;SDS011;19717;42.614;23.418;2023-05-01T11:33:56;0.40;;;0.40;;
33357;SDS011;19717;42.614;23.418;2023-05-01T11:36:25;0.50;;;0.50;;
33357;SDS011;19717;42.614;23.418;2023-05-01T11:38:55;0.40;;;0.40;;
33357;SDS011;19717;42.614;23.418;2023-05-01T11:41:22;1.88;;;0.65;;
33357;SDS011;19717;42.614;23.418;2023-05-01T11:46:36;0.40;;;0.40;;
33357;SDS011;19717;42.614;23.418;2023-05-01T11:49:02;0.98;;;0.50;;
33357;SDS011;19717;42.614;23.418;2023-05-01T11:51:30;0.52;;;0.47;;
33357;SDS011;19717;42.614;23.418;2023-05-01T11:54:04;0.40;;;0.40;;
33357;SDS011;19717;42.614;23.418;2023-05-01T11:56:30;1.30;;;0.40;;
33357;SDS011;19717;42.614;23.418;2023-05-01T11:58:57;2.53;;;0.50;;
33357;SDS011;19717;42.614;23.418;2023-05-01T12:01:37;0.40;;;0.40;;
33357;SDS011;19717;42.614;23.418;2023-05-01T12:04:04;0.40;;;0.40;;
33357;SDS011;19717;42.614;23.418;2023-05-01T12:09:05;0.40;;;0.40;;
33357;SDS011;19717;42.614;23.418;2023-05-01T12:11:33;0.50;;;0.50;;
33357;SDS011;19717;42.614;23.418;2023-05-01T12:13:59;0.65;;;0.65;;
33357;SDS011;19717;42.614;23.418;2023-05-01T12:16:25;0.85;;;0.50;;
33357;SDS011;19717;42.614;23.418;2023-05-01T12:18:53;0.50;;;0.50;;
33357;SDS011;19717;42.614;23.418;2023-05-01T12:21:19;0.73;;;0.60;;
33357;SDS011;19717;42.614;23.418;2023-05-01T12:23:46;1.48;;;0.40;;
33357;SDS011;19717;42.614;23.418;2023-05-01T12:26:15;3.10;;;2.00;;
33357;SDS011;19717;42.614;23.418;2023-05-01T12:28:58;0.75;;;0.70;;
33357;SDS011;19717;42.614;23.418;2023-05-01T12:31:24;0.73;;;0.73;;
33357;SDS011;19717;42.614;23.418;2023-05-01T12:36:23;0.70;;;0.70;;
33357;SDS011;19717;42.614;23.418;2023-05-01T12:39:06;1.55;;;0.50;;
33357;SDS011;19717;42.614;23.418;2023-05-01T12:43:59;0.52;;;0.50;;
33357;SDS011;19717;42.614;23.418;2023-05-01T12:46:25;1.50;;;0.60;;
33357;SDS011;19717;42.614;23.418;2023-05-01T12:48:55;0.50;;;0.50;;
33357;SDS011;19717;42.614;23.418;2023-05-01T12:51:24;2.17;;;0.63;;
33357;SDS011;19717;42.614;23.418;2023-05-01T12:53:51;5.38;;;1.30;;
33357;SDS011;19717;42.614;23.418;2023-05-01T12:56:22;1.73;;;0.88;;
33357;SDS011;19717;42.614;23.418;2023-05-01T12:58:51;0.85;;;0.50;;
33357;SDS011;19717;42.614;23.418;2023-05-01T13:01:25;0.85;;;0.40;;
33357;SDS011;19717;42.614;23.418;2023-05-01T13:03:55;1.75;;;0.57;;
33357;SDS011;19717;42.614;23.418;2023-05-01T13:06:31;0.50;;;0.50;;
33357;SDS011;19717;42.614;23.418;2023-05-01T13:09:05;1.95;;;0.50;;
33357;SDS011;19717;42.614;23.418;2023-05-01T13:11:33;0.47;;;0.47;;
33357;SDS011;19717;42.614;23.418;2023-05-01T13:14:09;0.60;;;0.50;;
33357;SDS011;19717;42.614;23.418;2023-05-01T13:16:44;0.57;;;0.50;;
33357;SDS011;19717;42.614;23.418;2023-05-01T13:19:10;0.57;;;0.57;;
33357;SDS011;19717;42.614;23.418;2023-05-01T13:21:44;0.50;;;0.50;;
33357;SDS011;19717;42.614;23.418;2023-05-01T13:24:12;0.63;;;0.60;;
33357;SDS011;19717;42.614;23.418;2023-05-01T13:26:38;0.50;;;0.50;;
33357;SDS011;19717;42.614;23.418;2023-05-01T13:29:04;2.42;;;0.60;;
33357;SDS011;19717;42.614;23.418;2023-05-01T13:31:36;0.50;;;0.50;;
33357;SDS011;19717;42.614;23.418;2023-05-01T13:34:03;0.82;;;0.50;;
33357;SDS011;19717;42.614;23.418;2023-05-01T13:36:30;0.50;;;0.50;;
33357;SDS011;19717;42.614;23.418;2023-05-01T13:38:57;0.88;;;0.60;;
33357;SDS011;19717;42.614;23.418;2023-05-01T13:41:24;1.83;;;0.50;;
33357;SDS011;19717;42.614;23.418;2023-05-01T13:43:51;2.83;;;0.82;;
33357;SDS011;19717;42.614;23.418;2023-05-01T13:46:18;0.73;;;0.73;;
33357;SDS011;19717;42.614;23.418;2023-05-01T13:48:45;0.47;;;0.43;;
33357;SDS011;19717;42.614;23.418;2023-05-01T13:51:12;1.73;;;0.50;;
33357;SDS011;19717;42.614;23.418;2023-05-01T13:53:38;0.50;;;0.50;;
33357;SDS011;19717;42.614;23.418;2023-05-01T13:56:05;1.85;;;0.60;;
33357;SDS011;19717;42.614;23.418;2023-05-01T13:58:33;0.60;;;0.60;;
33357;SDS011;19717;42.614;23.418;2023-05-01T14:00:59;0.60;;;0.60;;
33357;SDS011;19717;42.614;23.418;2023-05-01T14:03:26;4.63;;;0.80;;
33357;SDS011;19717;42.614;23.418;2023-05-01T14:05:52;2.03;;;0.60;;
33357;SDS011;19717;42.614;23.418;2023-05-01T14:08:22;2.17;;;0.50;;
33357;SDS011;19717;42.614;23.418;2023-05-01T14:10:52;0.50;;;0.50;;
33357;SDS011;19717;42.614;23.418;2023-05-01T14:13:18;1.75;;;0.60;;
33357;SDS011;19717;42.614;23.418;2023-05-01T14:15:44;4.45;;;0.60;;
33357;SDS011;19717;42.614;23.418;2023-05-01T14:18:10;0.50;;;0.50;;
33357;SDS011;19717;42.614;23.418;2023-05-01T14:20:39;0.40;;;0.40;;
33357;SDS011;19717;42.614;23.418;2023-05-01T14:23:05;1.20;;;0.55;;
33357;SDS011;19717;42.614;23.418;2023-05-01T14:25:32;0.50;;;0.47;;
33357;SDS011;19717;42.614;23.418;2023-05-01T14:28:00;1.98;;;0.60;;
33357;SDS011;19717;42.614;23.418;2023-05-01T14:32:53;0.40;;;0.40;;
33357;SDS011;19717;42.614;23.418;2023-05-01T14:35:22;0.40;;;0.40;;
33357;SDS011;19717;42.614;23.418;2023-05-01T14:37:51;0.50;;;0.50;;
33357;SDS011;19717;42.614;23.418;2023-05-01T14:40:22;0.60;;;0.60;;
33357;SDS011;19717;42.614;23.418;2023-05-01T14:42:51;0.50;;;0.50;;
33357;SDS011;19717;42.614;23.418;2023-05-01T14:45:17;0.70;;;0.70;;
33357;SDS011;19717;42.614;23.418;2023-05-01T14:47:44;0.50;;;0.50;;
33357;SDS011;19717;42.614;23.418;2023-05-01T14:50:11;0.70;;;0.60;;
33357;SDS011;19717;42.614;23.418;2023-05-01T14:52:40;0.60;;;0.60;;
33357;SDS011;19717;42.614;23.418;2023-05-01T14:55:07;1.33;;;0.70;;
33357;SDS011;19717;42.614;23.418;2023-05-01T14:57:33;0.50;;;0.50;;
33357;SDS011;19717;42.614;23.418;2023-05-01T15:00:01;0.50;;;0.50;;
33357;SDS011;19717;42.614;23.418;2023-05-01T15:02:31;1.17;;;0.50;;
33357;SDS011;19717;42.614;23.418;2023-05-01T15:04:57;2.03;;;0.55;;
33357;SDS011;19717;42.614;23.418;2023-05-01T15:07:23;0.50;;;0.50;;
33357;SDS011;19717;42.614;23.418;2023-05-01T15:09:49;1.77;;;0.55;;
33357;SDS011;19717;42.614;23.418;2023-05-01T15:12:16;0.60;;;0.60;;
33357;SDS011;19717;42.614;23.418;2023-05-01T15:14:42;0.60;;;0.60;;
33357;SDS011;19717;42.614;23.418;2023-05-01T15:17:08;0.50;;;0.50;;
33357;SDS011;19717;42.614;23.418;2023-05-01T15:19:34;0.50;;;0.50;;
33357;SDS011;19717;42.614;23.418;2023-05-01T15:22:01;0.75;;;0.40;;
33357;SDS011;19717;42.614;23.418;2023-05-01T15:24:28;0.50;;;0.50;;
33357;SDS011;19717;42.614;23.418;2023-05-01T15:26:54;0.50;;;0.50;;
33357;SDS011;19717;42.614;23.418;2023-05-01T15:29:20;0.40;;;0.40;;
33357;SDS011;19717;42.614;23.418;2023-05-01T15:31:46;0.40;;;0.40;;
33357;SDS011;19717;42.614;23.418;2023-05-01T15:34:12;0.40;;;0.40;;
33357;SDS011;19717;42.614;23.418;2023-05-01T15:36:39;0.50;;;0.50;;